Moormerland — V2BS — position and weather

sailwx.info

Track history (hours):
 
Tides and Currents Weather Stations Pressure Air Temp Water Temp Dewpoint Dewpoint Depression Visibility Wind Speed Wind Dir Waves Ship Positions

Moormerland

Last reported at 2017-Sep-24 16:11 UTC. Time now 2017-Sep-25 13:38 UTC.
Position N 43°49' W 007°60'.

Length 89 m; draft 5.1 m.

Type: Cargo ship. MMSI: 304785000.

Date/timePositionNaut miles runAvg speedWind from/ knotsBaromVisibWave heightAir tempDewpointWater temp
2017-Sep-24 16:11N 43°49' W 007°60'1 5.8
2017-Sep-24 16:00N 43°49' W 007°58'3 6.2
2017-Sep-24 15:31N 43°50' W 007°54'3 6.2
2017-Sep-24 15:00N 43°51' W 007°50'3 6.4
2017-Sep-24 14:30N 43°50' W 007°46'3 6.7
2017-Sep-24 14:01N 43°50' W 007°41'3 6.8
2017-Sep-24 13:30N 43°50' W 007°36'3 6.7
2017-Sep-24 13:01N 43°49' W 007°32'3 7.0
2017-Sep-24 12:31N 43°49' W 007°27'4 7.0
2017-Sep-24 12:01N 43°49' W 007°22'4 7.2
2017-Sep-24 11:30N 43°48' W 007°17'4 7.5
2017-Sep-24 11:00N 43°48' W 007°12'37 7.5
2017-Sep-24 06:04N 43°43' W 006°21'3 7.4
2017-Sep-24 05:40N 43°43' W 006°17'1 7.4
2017-Sep-24 05:28N 43°43' W 006°15'3 7.4
2017-Sep-24 05:00N 43°42' W 006°10'4 7.1
2017-Sep-24 04:30N 43°42' W 006°05'4 7.7
2017-Sep-24 03:59N 43°42' W 005°60'5 7.7
2017-Sep-24 03:19N 43°41' W 005°53'2 7.5
2017-Sep-24 03:00N 43°41' W 005°49'4 7.6
2017-Sep-24 02:30N 43°41' W 005°44'4 7.6
2017-Sep-24 02:00N 43°40' W 005°39'4 7.7
2017-Sep-24 01:30N 43°40' W 005°34'4 7.9
2017-Sep-24 01:00N 43°39' W 005°28'4 7.8
2017-Sep-24 00:30N 43°39' W 005°23'4 7.8
2017-Sep-24 00:00N 43°38' W 005°18'4 7.7
2017-Sep-23 23:26N 43°38' W 005°12'3 7.9
2017-Sep-23 23:00N 43°37' W 005°07'  
2017-Sep-21 14:32N 43°32' W 003°46'0 8.3
2017-Sep-21 14:30N 43°32' W 003°46'4 8.3
2017-Sep-21 14:00N 43°36' W 003°47'17 8.4
2017-Sep-21 12:00N 43°52' W 003°54'15 8.5
2017-Sep-21 10:18N 44°06' W 003°60'3 8.6
2017-Sep-21 09:58N 44°09' W 004°01'4 8.6
2017-Sep-21 09:30N 44°12' W 004°02'12 8.8
2017-Sep-21 08:07N 44°24' W 004°07'1 8.8
2017-Sep-21 08:00N 44°25' W 004°08'5 8.9
2017-Sep-21 07:26N 44°30' W 004°10'6 8.8
2017-Sep-21 06:46N 44°36' W 004°12'2 8.6
2017-Sep-21 06:30N 44°38' W 004°13'6 8.6
2017-Sep-21 05:51N 44°43' W 004°15'3 8.5
2017-Sep-21 05:30N 44°46' W 004°16'5 8.5
2017-Sep-21 04:57N 44°51' W 004°18'4 8.5
2017-Sep-21 04:30N 44°54' W 004°19'6 8.5
2017-Sep-21 03:46N 45°00' W 004°22'2 8.5
2017-Sep-21 03:30N 45°02' W 004°23'5 8.5
2017-Sep-21 02:57N 45°07' W 004°25'4 8.4
2017-Sep-21 02:30N 45°10' W 004°26'6 8.4
2017-Sep-21 01:44N 45°17' W 004°29'2 8.5
2017-Sep-21 01:30N 45°18' W 004°30'4 8.4
2017-Sep-21 01:00N 45°23' W 004°31'5 8.6
2017-Sep-21 00:27N 45°27' W 004°33'4 8.6
2017-Sep-21 00:00N 45°31' W 004°35'6 8.4
2017-Sep-20 23:21N 45°36' W 004°37'3 8.3
2017-Sep-20 22:57N 45°39' W 004°38'10 8.4
2017-Sep-20 21:49N 45°48' W 004°42'3 8.5
2017-Sep-20 21:31N 45°51' W 004°43'4 8.2
2017-Sep-20 21:00N 45°55' W 004°45'5 8.1
2017-Sep-20 20:24N 45°60' W 004°47'5 8.2
2017-Sep-20 19:44N 46°05' W 004°49'2 8.1
2017-Sep-20 19:29N 46°07' W 004°50'6 7.9
2017-Sep-20 18:42N 46°13' W 004°52'18 8.2
2017-Sep-20 16:33N 46°30' W 004°60'1 7.9
2017-Sep-20 16:27N 46°30' W 005°00'3 7.8
2017-Sep-20 16:00N 46°34' W 005°02'5 8.0
2017-Sep-20 15:24N 46°38' W 005°03'3 7.8
2017-Sep-20 14:58N 46°42' W 005°05'8 7.9
2017-Sep-20 14:00N 46°49' W 005°08'4 7.6
2017-Sep-20 13:27N 46°53' W 005°10'4 7.9
2017-Sep-20 13:01N 46°56' W 005°11'4 8.2
2017-Sep-20 12:30N 47°00' W 005°12'4 7.8
2017-Sep-20 12:00N 47°04' W 005°14'4 7.2
2017-Sep-20 11:30N 47°07' W 005°16'4 7.0
2017-Sep-20 10:59N 47°11' W 005°17'4 7.5
2017-Sep-20 10:30N 47°14' W 005°19'4 7.8
2017-Sep-20 10:00N 47°18' W 005°21'4 8.1
2017-Sep-20 09:30N 47°22' W 005°23'4 8.1
2017-Sep-20 09:00N 47°26' W 005°24'4 8.2
2017-Sep-20 08:30N 47°30' W 005°26'5 8.7
2017-Sep-20 07:58N 47°34' W 005°28'5 8.9
2017-Sep-20 07:25N 47°39' W 005°30'8 9.1
2017-Sep-20 06:29N 47°47' W 005°33'5 9.2
2017-Sep-20 05:54N 47°52' W 005°36'4 9.1
2017-Sep-20 05:30N 47°56' W 005°37'5 8.8
2017-Sep-20 04:55N 48°01' W 005°40'4 8.0
2017-Sep-20 04:29N 48°04' W 005°41'4 7.6
2017-Sep-20 04:00N 48°08' W 005°42'4 7.3
2017-Sep-20 03:30N 48°11' W 005°44'3 7.0
2017-Sep-20 03:01N 48°14' W 005°45'3 6.8
2017-Sep-20 02:31N 48°18' W 005°46'4 6.5
2017-Sep-20 01:58N 48°21' W 005°48'3 6.7
2017-Sep-20 01:29N 48°24' W 005°49'4 6.9
2017-Sep-20 00:58N 48°27' W 005°52'3 6.3
2017-Sep-20 00:27N 48°31' W 005°52'4 7.5
2017-Sep-19 23:59N 48°34' W 005°54'5 7.9
2017-Sep-19 23:21N 48°39' W 005°56'3 7.7
2017-Sep-19 22:59N 48°42' W 005°56'4 9.1
2017-Sep-19 22:30N 48°45' W 005°53'6 9.5
2017-Sep-19 21:53N 48°51' W 005°48'44 8.2
2017-Sep-19 16:30N 49°14' W 004°52'22 6.6
2017-Sep-19 13:09N 49°25' W 004°22'12 8.6
2017-Sep-19 11:48N 49°31' W 004°07'4 9.3
2017-Sep-19 11:24N 49°33' W 004°02'5 9.6
2017-Sep-19 10:56N 49°35' W 003°56'17 9.4
2017-Sep-19 09:05N 49°44' W 003°33'1 8.7
2017-Sep-19 09:00N 49°45' W 003°32'4 8.4
2017-Sep-19 08:29N 49°47' W 003°26'4 7.8
2017-Sep-19 08:00N 49°49' W 003°21'4 7.3
2017-Sep-19 07:30N 49°51' W 003°16'3 6.8
2017-Sep-19 07:00N 49°52' W 003°12'7 6.2
2017-Sep-19 05:56N 49°56' W 003°03'3 6.1
2017-Sep-19 05:30N 49°57' W 002°59'3 6.2
2017-Sep-19 05:00N 49°58' W 002°55'35 8.7
2017-Sep-19 01:01N 50°08' W 002°03'012.1
2017-Sep-19 01:01N 50°08' W 002°03'611.5
2017-Sep-19 00:31N 50°10' W 001°54'611.5
2017-Sep-19 00:00N 50°11' W 001°46'611.2
2017-Sep-18 23:31N 50°13' W 001°37'510.6
2017-Sep-18 23:00N 50°15' W 001°29'5 9.7
2017-Sep-18 22:30N 50°16' W 001°22'4 8.9
2017-Sep-18 22:00N 50°17' W 001°15'34 6.1
2017-Sep-18 16:25N 50°27' W 000°25'3 8.1
2017-Sep-18 16:00N 50°28' W 000°19'4 8.7
2017-Sep-18 15:30N 50°29' W 000°13'5 9.3
2017-Sep-18 15:00N 50°31' W 000°06'5 9.5
2017-Sep-18 14:30N 50°32' E 000°01'5 9.6
2017-Sep-18 14:00N 50°33' E 000°08'6 9.8
2017-Sep-18 13:26N 50°35' E 000°17'5 9.7
2017-Sep-18 12:54N 50°36' E 000°25'4 9.3
2017-Sep-18 12:30N 50°37' E 000°30'4 8.9
2017-Sep-18 12:00N 50°40' E 000°36'4 8.8
2017-Sep-18 11:30N 50°42' E 000°42'4 8.4
2017-Sep-18 11:00N 50°44' E 000°47'4 7.9
2017-Sep-18 10:30N 50°47' E 000°53'4 7.6
2017-Sep-18 10:00N 50°49' E 000°58'8 7.5
2017-Sep-18 08:57N 50°54' E 001°07'4 7.7
2017-Sep-18 08:28N 50°56' E 001°12'4 8.1
2017-Sep-18 08:00N 50°59' E 001°16'4 9.0
2017-Sep-18 07:30N 51°02' E 001°22'510.4
2017-Sep-18 07:00N 51°05' E 001°28'611.4
2017-Sep-18 06:30N 51°08' E 001°35'611.2
2017-Sep-18 06:00N 51°12' E 001°42'510.5
2017-Sep-18 05:30N 51°16' E 001°47'510.4
2017-Sep-18 05:00N 51°21' E 001°51'5 9.8
2017-Sep-18 04:30N 51°25' E 001°56'5 9.1
2017-Sep-18 04:00N 51°29' E 001°59'4 8.6
2017-Sep-18 03:30N 51°32' E 002°04'4 8.2
2017-Sep-18 03:00N 51°35' E 002°08'4 7.9
2017-Sep-18 02:30N 51°38' E 002°12'4 7.5
2017-Sep-18 01:56N 51°41' E 002°17'4 7.2
2017-Sep-18 01:23N 51°44' E 002°21'260 8.0
2017-Sep-16 17:03N 55°22' E 006°20'0 8.1
2017-Sep-16 17:00N 55°22' E 006°20'4 8.2
2017-Sep-16 16:29N 55°26' E 006°24'4 8.2
2017-Sep-16 15:59N 55°29' E 006°28'4 8.1
2017-Sep-16 15:29N 55°33' E 006°32'4 8.0
2017-Sep-16 15:00N 55°36' E 006°35'164 5.9
2017-Sep-15 11:29N 57°36' E 009°58'3 5.3
2017-Sep-15 10:58N 57°37' E 009°54'5 9.3
2017-Sep-15 10:25N 57°38' E 009°44'5 9.1
2017-Sep-15 09:52N 57°38' E 009°35'3 8.7
2017-Sep-15 09:30N 57°38' E 009°29'60 8.5
2017-Sep-15 02:24N 57°42' E 007°37'3 7.0
2017-Sep-15 02:00N 57°42' E 007°31'3 6.8
2017-Sep-15 01:30N 57°42' E 007°25'3 6.8
2017-Sep-15 01:00N 57°42' E 007°18'3 6.9
2017-Sep-15 00:29N 57°42' E 007°12'3 6.9
2017-Sep-15 00:00N 57°43' E 007°06'4 7.0
2017-Sep-14 23:29N 57°43' E 006°59'3 6.9
2017-Sep-14 23:00N 57°43' E 006°53'4 7.1
2017-Sep-14 22:30N 57°43' E 006°46'3 6.8
2017-Sep-14 21:59N 57°43' E 006°39'3 6.6
2017-Sep-14 21:30N 57°43' E 006°33'3 7.1
2017-Sep-14 21:00N 57°46' E 006°28'4 7.1
2017-Sep-14 20:30N 57°48' E 006°23'4 7.5
2017-Sep-14 20:00N 57°50' E 006°18'4 7.8
2017-Sep-14 19:30N 57°53' E 006°13'4 8.2
2017-Sep-14 19:00N 57°56' E 006°07'4 8.0
2017-Sep-14 18:30N 57°58' E 006°01'4 7.9
2017-Sep-14 18:00N 58°01' E 005°55'4 7.6
2017-Sep-14 17:30N 58°03' E 005°50'  
Track history (hours):
 
Tides and Currents Weather Stations Pressure Air Temp Water Temp Dewpoint Dewpoint Depression Visibility Wind Speed Wind Dir Waves Ship Positions

Moormerland

Last reported at 2017-Sep-24 16:11 UTC. Time now 2017-Sep-25 13:38 UTC.
Position N 43°49' W 007°60'.

Length 89 m; draft 5.1 m.

Type: Cargo ship. MMSI: 304785000.

Date/timePositionNaut miles runAvg speedWind from/ knotsBaromVisibWave heightAir tempDewpointWater temp
2017-Sep-24 16:11N 43°49' W 007°60'1 5.8
2017-Sep-24 16:00N 43°49' W 007°58'3 6.2
2017-Sep-24 15:31N 43°50' W 007°54'3 6.2
2017-Sep-24 15:00N 43°51' W 007°50'3 6.4
2017-Sep-24 14:30N 43°50' W 007°46'3 6.7
2017-Sep-24 14:01N 43°50' W 007°41'3 6.8
2017-Sep-24 13:30N 43°50' W 007°36'3 6.7
2017-Sep-24 13:01N 43°49' W 007°32'3 7.0
2017-Sep-24 12:31N 43°49' W 007°27'4 7.0
2017-Sep-24 12:01N 43°49' W 007°22'4 7.2
2017-Sep-24 11:30N 43°48' W 007°17'4 7.5
2017-Sep-24 11:00N 43°48' W 007°12'37 7.5
2017-Sep-24 06:04N 43°43' W 006°21'3 7.4
2017-Sep-24 05:40N 43°43' W 006°17'1 7.4
2017-Sep-24 05:28N 43°43' W 006°15'3 7.4
2017-Sep-24 05:00N 43°42' W 006°10'4 7.1
2017-Sep-24 04:30N 43°42' W 006°05'4 7.7
2017-Sep-24 03:59N 43°42' W 005°60'5 7.7
2017-Sep-24 03:19N 43°41' W 005°53'2 7.5
2017-Sep-24 03:00N 43°41' W 005°49'4 7.6
2017-Sep-24 02:30N 43°41' W 005°44'4 7.6
2017-Sep-24 02:00N 43°40' W 005°39'4 7.7
2017-Sep-24 01:30N 43°40' W 005°34'4 7.9
2017-Sep-24 01:00N 43°39' W 005°28'4 7.8
2017-Sep-24 00:30N 43°39' W 005°23'4 7.8
2017-Sep-24 00:00N 43°38' W 005°18'4 7.7
2017-Sep-23 23:26N 43°38' W 005°12'3 7.9
2017-Sep-23 23:00N 43°37' W 005°07'  
2017-Sep-21 14:32N 43°32' W 003°46'0 8.3
2017-Sep-21 14:30N 43°32' W 003°46'4 8.3
2017-Sep-21 14:00N 43°36' W 003°47'17 8.4
2017-Sep-21 12:00N 43°52' W 003°54'15 8.5
2017-Sep-21 10:18N 44°06' W 003°60'3 8.6
2017-Sep-21 09:58N 44°09' W 004°01'4 8.6
2017-Sep-21 09:30N 44°12' W 004°02'12 8.8
2017-Sep-21 08:07N 44°24' W 004°07'1 8.8
2017-Sep-21 08:00N 44°25' W 004°08'5 8.9
2017-Sep-21 07:26N 44°30' W 004°10'6 8.8
2017-Sep-21 06:46N 44°36' W 004°12'2 8.6
2017-Sep-21 06:30N 44°38' W 004°13'6 8.6
2017-Sep-21 05:51N 44°43' W 004°15'3 8.5
2017-Sep-21 05:30N 44°46' W 004°16'5 8.5
2017-Sep-21 04:57N 44°51' W 004°18'4 8.5
2017-Sep-21 04:30N 44°54' W 004°19'6 8.5
2017-Sep-21 03:46N 45°00' W 004°22'2 8.5
2017-Sep-21 03:30N 45°02' W 004°23'5 8.5
2017-Sep-21 02:57N 45°07' W 004°25'4 8.4
2017-Sep-21 02:30N 45°10' W 004°26'6 8.4
2017-Sep-21 01:44N 45°17' W 004°29'2 8.5
2017-Sep-21 01:30N 45°18' W 004°30'4 8.4
2017-Sep-21 01:00N 45°23' W 004°31'5 8.6
2017-Sep-21 00:27N 45°27' W 004°33'4 8.6
2017-Sep-21 00:00N 45°31' W 004°35'6 8.4
2017-Sep-20 23:21N 45°36' W 004°37'3 8.3
2017-Sep-20 22:57N 45°39' W 004°38'10 8.4
2017-Sep-20 21:49N 45°48' W 004°42'3 8.5
2017-Sep-20 21:31N 45°51' W 004°43'4 8.2
2017-Sep-20 21:00N 45°55' W 004°45'5 8.1
2017-Sep-20 20:24N 45°60' W 004°47'5 8.2
2017-Sep-20 19:44N 46°05' W 004°49'2 8.1
2017-Sep-20 19:29N 46°07' W 004°50'6 7.9
2017-Sep-20 18:42N 46°13' W 004°52'18 8.2
2017-Sep-20 16:33N 46°30' W 004°60'1 7.9
2017-Sep-20 16:27N 46°30' W 005°00'3 7.8
2017-Sep-20 16:00N 46°34' W 005°02'5 8.0
2017-Sep-20 15:24N 46°38' W 005°03'3 7.8
2017-Sep-20 14:58N 46°42' W 005°05'8 7.9
2017-Sep-20 14:00N 46°49' W 005°08'4 7.6
2017-Sep-20 13:27N 46°53' W 005°10'4 7.9
2017-Sep-20 13:01N 46°56' W 005°11'4 8.2
2017-Sep-20 12:30N 47°00' W 005°12'4 7.8
2017-Sep-20 12:00N 47°04' W 005°14'4 7.2
2017-Sep-20 11:30N 47°07' W 005°16'4 7.0
2017-Sep-20 10:59N 47°11' W 005°17'4 7.5
2017-Sep-20 10:30N 47°14' W 005°19'4 7.8
2017-Sep-20 10:00N 47°18' W 005°21'4 8.1
2017-Sep-20 09:30N 47°22' W 005°23'4 8.1
2017-Sep-20 09:00N 47°26' W 005°24'4 8.2
2017-Sep-20 08:30N 47°30' W 005°26'5 8.7
2017-Sep-20 07:58N 47°34' W 005°28'5 8.9
2017-Sep-20 07:25N 47°39' W 005°30'8 9.1
2017-Sep-20 06:29N 47°47' W 005°33'5 9.2
2017-Sep-20 05:54N 47°52' W 005°36'4 9.1
2017-Sep-20 05:30N 47°56' W 005°37'5 8.8
2017-Sep-20 04:55N 48°01' W 005°40'4 8.0
2017-Sep-20 04:29N 48°04' W 005°41'4 7.6
2017-Sep-20 04:00N 48°08' W 005°42'4 7.3
2017-Sep-20 03:30N 48°11' W 005°44'3 7.0
2017-Sep-20 03:01N 48°14' W 005°45'3 6.8
2017-Sep-20 02:31N 48°18' W 005°46'4 6.5
2017-Sep-20 01:58N 48°21' W 005°48'3 6.7
2017-Sep-20 01:29N 48°24' W 005°49'4 6.9
2017-Sep-20 00:58N 48°27' W 005°52'3 6.3
2017-Sep-20 00:27N 48°31' W 005°52'4 7.5
2017-Sep-19 23:59N 48°34' W 005°54'5 7.9
2017-Sep-19 23:21N 48°39' W 005°56'3 7.7
2017-Sep-19 22:59N 48°42' W 005°56'4 9.1
2017-Sep-19 22:30N 48°45' W 005°53'6 9.5
2017-Sep-19 21:53N 48°51' W 005°48'44 8.2
2017-Sep-19 16:30N 49°14' W 004°52'22 6.6
2017-Sep-19 13:09N 49°25' W 004°22'12 8.6
2017-Sep-19 11:48N 49°31' W 004°07'4 9.3
2017-Sep-19 11:24N 49°33' W 004°02'5 9.6
2017-Sep-19 10:56N 49°35' W 003°56'17 9.4
2017-Sep-19 09:05N 49°44' W 003°33'1 8.7
2017-Sep-19 09:00N 49°45' W 003°32'4 8.4
2017-Sep-19 08:29N 49°47' W 003°26'4 7.8
2017-Sep-19 08:00N 49°49' W 003°21'4 7.3
2017-Sep-19 07:30N 49°51' W 003°16'3 6.8
2017-Sep-19 07:00N 49°52' W 003°12'7 6.2
2017-Sep-19 05:56N 49°56' W 003°03'3 6.1
2017-Sep-19 05:30N 49°57' W 002°59'3 6.2
2017-Sep-19 05:00N 49°58' W 002°55'35 8.7
2017-Sep-19 01:01N 50°08' W 002°03'012.1
2017-Sep-19 01:01N 50°08' W 002°03'611.5
2017-Sep-19 00:31N 50°10' W 001°54'611.5
2017-Sep-19 00:00N 50°11' W 001°46'611.2
2017-Sep-18 23:31N 50°13' W 001°37'510.6
2017-Sep-18 23:00N 50°15' W 001°29'5 9.7
2017-Sep-18 22:30N 50°16' W 001°22'4 8.9
2017-Sep-18 22:00N 50°17' W 001°15'34 6.1
2017-Sep-18 16:25N 50°27' W 000°25'3 8.1
2017-Sep-18 16:00N 50°28' W 000°19'4 8.7
2017-Sep-18 15:30N 50°29' W 000°13'5 9.3
2017-Sep-18 15:00N 50°31' W 000°06'5 9.5
2017-Sep-18 14:30N 50°32' E 000°01'5 9.6
2017-Sep-18 14:00N 50°33' E 000°08'6 9.8
2017-Sep-18 13:26N 50°35' E 000°17'5 9.7
2017-Sep-18 12:54N 50°36' E 000°25'4 9.3
2017-Sep-18 12:30N 50°37' E 000°30'4 8.9
2017-Sep-18 12:00N 50°40' E 000°36'4 8.8
2017-Sep-18 11:30N 50°42' E 000°42'4 8.4
2017-Sep-18 11:00N 50°44' E 000°47'4 7.9
2017-Sep-18 10:30N 50°47' E 000°53'4 7.6
2017-Sep-18 10:00N 50°49' E 000°58'8 7.5
2017-Sep-18 08:57N 50°54' E 001°07'4 7.7
2017-Sep-18 08:28N 50°56' E 001°12'4 8.1
2017-Sep-18 08:00N 50°59' E 001°16'4 9.0
2017-Sep-18 07:30N 51°02' E 001°22'510.4
2017-Sep-18 07:00N 51°05' E 001°28'611.4
2017-Sep-18 06:30N 51°08' E 001°35'611.2
2017-Sep-18 06:00N 51°12' E 001°42'510.5
2017-Sep-18 05:30N 51°16' E 001°47'510.4
2017-Sep-18 05:00N 51°21' E 001°51'5 9.8
2017-Sep-18 04:30N 51°25' E 001°56'5 9.1
2017-Sep-18 04:00N 51°29' E 001°59'4 8.6
2017-Sep-18 03:30N 51°32' E 002°04'4 8.2
2017-Sep-18 03:00N 51°35' E 002°08'4 7.9
2017-Sep-18 02:30N 51°38' E 002°12'4 7.5
2017-Sep-18 01:56N 51°41' E 002°17'4 7.2
2017-Sep-18 01:23N 51°44' E 002°21'260 8.0
2017-Sep-16 17:03N 55°22' E 006°20'0 8.1
2017-Sep-16 17:00N 55°22' E 006°20'4 8.2
2017-Sep-16 16:29N 55°26' E 006°24'4 8.2
2017-Sep-16 15:59N 55°29' E 006°28'4 8.1
2017-Sep-16 15:29N 55°33' E 006°32'4 8.0
2017-Sep-16 15:00N 55°36' E 006°35'164 5.9
2017-Sep-15 11:29N 57°36' E 009°58'3 5.3
2017-Sep-15 10:58N 57°37' E 009°54'5 9.3
2017-Sep-15 10:25N 57°38' E 009°44'5 9.1
2017-Sep-15 09:52N 57°38' E 009°35'3 8.7
2017-Sep-15 09:30N 57°38' E 009°29'60 8.5
2017-Sep-15 02:24N 57°42' E 007°37'3 7.0
2017-Sep-15 02:00N 57°42' E 007°31'3 6.8
2017-Sep-15 01:30N 57°42' E 007°25'3 6.8
2017-Sep-15 01:00N 57°42' E 007°18'3 6.9
2017-Sep-15 00:29N 57°42' E 007°12'3 6.9
2017-Sep-15 00:00N 57°43' E 007°06'4 7.0
2017-Sep-14 23:29N 57°43' E 006°59'3 6.9
2017-Sep-14 23:00N 57°43' E 006°53'4 7.1
2017-Sep-14 22:30N 57°43' E 006°46'3 6.8
2017-Sep-14 21:59N 57°43' E 006°39'3 6.6
2017-Sep-14 21:30N 57°43' E 006°33'3 7.1
2017-Sep-14 21:00N 57°46' E 006°28'4 7.1
2017-Sep-14 20:30N 57°48' E 006°23'4 7.5
2017-Sep-14 20:00N 57°50' E 006°18'4 7.8
2017-Sep-14 19:30N 57°53' E 006°13'4 8.2
2017-Sep-14 19:00N 57°56' E 006°07'4 8.0
2017-Sep-14 18:30N 57°58' E 006°01'4 7.9
2017-Sep-14 18:00N 58°01' E 005°55'4 7.6
2017-Sep-14 17:30N 58°03' E 005°50'  

Dump ship's entire track history